createdAt,value
2022-10-23T00:00:46.594Z,94256.98
2022-10-23T00:02:07.230Z,94255.25
2022-10-23T00:03:10.399Z,94251.23
2022-10-23T00:04:25.541Z,94254.63
2022-10-23T00:05:29.949Z,94257.00
2022-10-23T00:06:34.988Z,94262.90
2022-10-23T00:07:41.731Z,94262.23
2022-10-23T00:08:51.591Z,94266.00
2022-10-23T00:09:55.976Z,94265.23
2022-10-23T00:10:59.223Z,94265.02
2022-10-23T00:12:02.395Z,94265.59
2022-10-23T00:13:05.621Z,94265.53
2022-10-23T00:14:09.680Z,94267.59
2022-10-23T00:15:13.038Z,94264.13
2022-10-23T00:16:16.711Z,94259.20
2022-10-23T00:17:19.910Z,94261.00
2022-10-23T00:18:23.021Z,94260.23
2022-10-23T00:19:28.908Z,94255.65
2022-10-23T00:20:32.102Z,94262.34
2022-10-23T00:21:35.573Z,94258.38
2022-10-23T00:22:39.229Z,94258.22
2022-10-23T00:23:42.771Z,94256.66
2022-10-23T00:24:46.213Z,94256.39
2022-10-23T00:25:49.661Z,94255.37
2022-10-23T00:26:52.901Z,94256.16
2022-10-23T00:27:56.988Z,94253.55
2022-10-23T00:29:01.274Z,94253.63
2022-10-23T00:30:06.041Z,94256.02
2022-10-23T00:31:09.350Z,94257.71
2022-10-23T00:32:12.542Z,94257.40
2022-10-23T00:33:16.428Z,94250.14
2022-10-23T00:34:19.972Z,94258.58
2022-10-23T00:35:23.216Z,94256.45
2022-10-23T00:36:26.754Z,94256.82
2022-10-23T00:37:29.934Z,94255.98
2022-10-23T00:38:34.749Z,94255.27
2022-10-23T00:39:38.723Z,94253.09
2022-10-23T00:40:44.195Z,94253.41
2022-10-23T00:41:47.507Z,94254.71
2022-10-23T00:42:52.221Z,94249.52
2022-10-23T00:44:18.696Z,94253.83
2022-10-23T00:45:27.882Z,94252.67
2022-10-23T00:46:33.681Z,94252.25
2022-10-23T00:47:37.026Z,94254.74
2022-10-23T00:48:41.637Z,94254.39
2022-10-23T00:49:45.029Z,94251.16
2022-10-23T00:50:49.731Z,94250.85
2022-10-23T00:52:05.183Z,94252.27
2022-10-23T00:53:10.522Z,94255.70
2022-10-23T00:54:24.517Z,94256.20
2022-10-23T00:55:30.709Z,94256.57
2022-10-23T00:56:38.587Z,94256.77
2022-10-23T00:57:43.609Z,94255.58
2022-10-23T00:58:46.997Z,94255.31
2022-10-23T00:59:50.236Z,94254.44
2022-10-23T01:00:56.458Z,94256.80
2022-10-23T01:02:00.469Z,94257.08
2022-10-23T01:03:04.506Z,94255.15
2022-10-23T01:04:10.481Z,94254.58
2022-10-23T01:05:14.513Z,94254.72
2022-10-23T01:06:38.762Z,94251.08
2022-10-23T01:07:51.117Z,94247.33
2022-10-23T01:09:08.916Z,94241.63
2022-10-23T01:10:32.412Z,94240.23
2022-10-23T01:12:15.522Z,94240.21
2022-10-23T01:13:49.812Z,94242.04
2022-10-23T01:15:02.241Z,94242.34
2022-10-23T01:16:12.439Z,94239.23
2022-10-23T01:17:44.661Z,94238.77
2022-10-23T01:19:23.751Z,94235.27
2022-10-23T01:20:33.283Z,94236.27
2022-10-23T01:21:51.490Z,94239.23
2022-10-23T01:23:22.335Z,94235.13
2022-10-23T01:24:56.285Z,94236.75
2022-10-23T01:26:18.480Z,94238.65
2022-10-23T01:27:25.256Z,94239.48
2022-10-23T01:28:40.167Z,94236.36
2022-10-23T01:30:12.060Z,94237.10
2022-10-23T01:31:34.088Z,94234.32
2022-10-23T01:32:49.211Z,94237.05
2022-10-23T01:34:04.228Z,94233.52
2022-10-23T01:35:16.487Z,94233.44
2022-10-23T01:36:24.425Z,94229.60
2022-10-23T01:37:59.148Z,94228.87
2022-10-23T01:39:08.409Z,94225.96
2022-10-23T01:40:30.056Z,94224.13
2022-10-23T01:41:35.413Z,94222.83
2022-10-23T01:42:47.585Z,94221.39
2022-10-23T01:44:16.966Z,94225.41
2022-10-23T01:45:32.915Z,94222.46
2022-10-23T01:46:37.603Z,94218.35
2022-10-23T01:47:44.420Z,94218.42
2022-10-23T01:48:55.567Z,94213.66
2022-10-23T01:50:00.292Z,94214.00
2022-10-23T01:51:10.015Z,94215.36
2022-10-23T01:52:15.228Z,94213.90
2022-10-23T01:53:22.165Z,94213.75
2022-10-23T01:54:31.752Z,94208.31
2022-10-23T01:55:38.418Z,94210.80
2022-10-23T01:56:46.286Z,94206.75
2022-10-23T01:57:51.284Z,94207.18
2022-10-23T01:58:57.717Z,94204.73
2022-10-23T02:00:08.743Z,94205.45
2022-10-23T02:01:30.643Z,94208.55
2022-10-23T02:02:36.415Z,94205.66
2022-10-23T02:03:41.151Z,94208.58
2022-10-23T02:05:03.764Z,94208.83
2022-10-23T02:06:07.720Z,94211.06
2022-10-23T02:07:10.984Z,94210.27
2022-10-23T02:08:14.396Z,94211.51
2022-10-23T02:09:18.422Z,94213.27
2022-10-23T02:10:27.122Z,94215.36
2022-10-23T02:11:34.717Z,94217.04
2022-10-23T02:12:59.829Z,94213.41
2022-10-23T02:14:18.144Z,94211.38
2022-10-23T02:15:42.831Z,94213.23
2022-10-23T02:16:52.142Z,94213.45
2022-10-23T02:18:10.192Z,94216.14
2022-10-23T02:19:19.771Z,94216.26
2022-10-23T02:20:37.260Z,94215.04
2022-10-23T02:21:49.441Z,94207.88
2022-10-23T02:23:19.911Z,94202.63
2022-10-23T02:24:43.975Z,94199.18
2022-10-23T02:25:56.768Z,94198.64
2022-10-23T02:27:04.233Z,94197.69
2022-10-23T02:28:14.561Z,94196.79
2022-10-23T02:29:33.870Z,94195.64
2022-10-23T02:30:43.070Z,94192.89
2022-10-23T02:31:46.960Z,94195.90
2022-10-23T02:32:55.260Z,94190.77
2022-10-23T02:33:58.871Z,94195.45
2022-10-23T02:35:03.083Z,94194.95
2022-10-23T02:36:06.934Z,94194.20
2022-10-23T02:37:10.256Z,94192.73
2022-10-23T02:38:31.145Z,94189.63
2022-10-23T02:39:34.395Z,94190.23
2022-10-23T02:40:45.102Z,94193.46
2022-10-23T02:42:22.378Z,94193.50
2022-10-23T02:43:36.673Z,94195.48
2022-10-23T02:44:55.376Z,94191.49
2022-10-23T02:46:18.694Z,94192.77
2022-10-23T02:47:43.432Z,94191.61
2022-10-23T02:49:02.161Z,94192.70
2022-10-23T02:50:33.837Z,94193.10
2022-10-23T02:51:48.327Z,94193.79
2022-10-23T02:53:06.693Z,94192.33
2022-10-23T02:54:51.859Z,94193.29
2022-10-23T02:56:07.803Z,94194.81
2022-10-23T02:57:33.734Z,94199.59
2022-10-23T02:59:06.652Z,94199.17
2022-10-23T03:00:17.955Z,94196.12
2022-10-23T03:01:27.624Z,94195.77
2022-10-23T03:02:43.008Z,94194.46
2022-10-23T03:04:03.271Z,94194.19
2022-10-23T03:05:12.947Z,94189.63
2022-10-23T03:06:16.642Z,94189.91
2022-10-23T03:07:20.811Z,94186.85
2022-10-23T03:08:25.329Z,94186.89
2022-10-23T03:09:29.940Z,94183.05
2022-10-23T03:10:33.280Z,94187.17
2022-10-23T03:11:36.846Z,94183.17
2022-10-23T03:12:41.114Z,94175.52
2022-10-23T03:13:44.674Z,94175.16
2022-10-23T03:14:47.941Z,94176.43
2022-10-23T03:15:51.747Z,94176.31
2022-10-23T03:16:54.976Z,94172.92
2022-10-23T03:17:58.182Z,94175.33
2022-10-23T03:19:01.685Z,94176.67
2022-10-23T03:20:07.470Z,94175.40
2022-10-23T03:21:12.147Z,94173.79
2022-10-23T03:22:15.335Z,94175.02
2022-10-23T03:23:18.614Z,94175.37
2022-10-23T03:24:21.823Z,94171.45
2022-10-23T03:25:24.921Z,94171.91
2022-10-23T03:26:28.551Z,94168.92
2022-10-23T03:27:32.022Z,94163.99
2022-10-23T03:28:36.180Z,94167.18
2022-10-23T03:29:39.434Z,94164.17
2022-10-23T03:30:42.613Z,94162.36
2022-10-23T03:31:46.044Z,94162.76
2022-10-23T03:32:49.510Z,94162.54
2022-10-23T03:33:52.731Z,94160.21
2022-10-23T03:34:57.521Z,94157.32
2022-10-23T03:36:02.963Z,94155.09
2022-10-23T03:37:06.161Z,94149.63
2022-10-23T03:38:09.553Z,94156.55
2022-10-23T03:39:13.267Z,94156.45
2022-10-23T03:40:18.633Z,94161.34
2022-10-23T03:41:21.830Z,94161.34
2022-10-23T03:42:25.013Z,94165.04
2022-10-23T03:43:31.707Z,94162.09
2022-10-23T03:44:35.326Z,94160.45
2022-10-23T03:45:38.847Z,94157.30
2022-10-23T03:46:42.216Z,94156.77
2022-10-23T03:47:46.782Z,94154.09
2022-10-23T03:48:50.583Z,94158.09
2022-10-23T03:49:54.689Z,94154.12
2022-10-23T03:50:59.730Z,94155.38
2022-10-23T03:52:03.793Z,94153.00
2022-10-23T03:53:06.983Z,94155.80
2022-10-23T03:54:11.485Z,94156.77
2022-10-23T03:55:14.794Z,94154.27
2022-10-23T03:56:18.193Z,94157.36
2022-10-23T03:57:21.540Z,94154.66
2022-10-23T03:58:25.628Z,94149.98
2022-10-23T03:59:29.505Z,94150.77
2022-10-23T04:00:33.455Z,94150.08
2022-10-23T04:01:37.297Z,94152.89
2022-10-23T04:02:42.779Z,94149.88
2022-10-23T04:03:46.508Z,94154.17
2022-10-23T04:04:51.732Z,94157.91
2022-10-23T04:05:55.614Z,94159.05
2022-10-23T04:06:58.885Z,94156.21
2022-10-23T04:08:02.632Z,94152.98
2022-10-23T04:09:06.783Z,94152.52
2022-10-23T04:10:10.547Z,94151.07
2022-10-23T04:11:13.775Z,94150.91
2022-10-23T04:12:26.061Z,94153.37
2022-10-23T04:13:29.448Z,94154.72
2022-10-23T04:14:33.156Z,94155.08
2022-10-23T04:15:36.504Z,94153.40
2022-10-23T04:16:39.961Z,94153.67
2022-10-23T04:17:43.147Z,94153.28
2022-10-23T04:18:46.323Z,94152.23
2022-10-23T04:19:49.438Z,94154.35
2022-10-23T04:20:53.020Z,94157.67
2022-10-23T04:21:57.397Z,94156.10
2022-10-23T04:23:00.816Z,94158.41
2022-10-23T04:24:04.491Z,94160.86
2022-10-23T04:25:08.748Z,94162.77
2022-10-23T04:26:12.447Z,94162.39
2022-10-23T04:27:15.806Z,94163.67
2022-10-23T04:28:19.446Z,94162.64
2022-10-23T04:29:24.701Z,94161.25
2022-10-23T04:30:27.986Z,94160.41
2022-10-23T04:31:31.882Z,94160.80
2022-10-23T04:32:35.098Z,94163.93
2022-10-23T04:33:38.252Z,94161.86
2022-10-23T04:34:41.716Z,94161.94
2022-10-23T04:35:45.251Z,94159.59
2022-10-23T04:36:48.498Z,94163.67
2022-10-23T04:37:51.690Z,94159.59
2022-10-23T04:38:54.972Z,94164.29
2022-10-23T04:39:58.087Z,94169.79
2022-10-23T04:41:03.811Z,94168.92
2022-10-23T04:42:07.123Z,94169.48
2022-10-23T04:43:12.087Z,94169.01
2022-10-23T04:44:18.069Z,94168.17
2022-10-23T04:45:21.806Z,94166.00
2022-10-23T04:46:25.051Z,94164.91
2022-10-23T04:47:28.610Z,94164.13
2022-10-23T04:48:34.338Z,94164.59
2022-10-23T04:49:56.603Z,94166.61
2022-10-23T04:51:18.693Z,94170.06
2022-10-23T04:52:30.523Z,94173.39
2022-10-23T04:54:00.055Z,94171.48
2022-10-23T04:55:32.777Z,94166.67
2022-10-23T04:57:02.142Z,94167.42
2022-10-23T04:58:18.692Z,94167.67
2022-10-23T04:59:21.925Z,94167.68
2022-10-23T05:00:25.889Z,94169.33
2022-10-23T05:01:31.419Z,94166.64
2022-10-23T05:02:35.622Z,94166.56
2022-10-23T05:03:38.967Z,94168.54
2022-10-23T05:04:44.056Z,94164.76
2022-10-23T05:06:06.689Z,94162.17
2022-10-23T05:07:45.844Z,94165.92
2022-10-23T05:09:09.568Z,94163.87
2022-10-23T05:10:27.057Z,94166.70
2022-10-23T05:11:41.951Z,94163.14
2022-10-23T05:12:46.102Z,94163.54
2022-10-23T05:13:49.406Z,94160.98
2022-10-23T05:14:52.681Z,94160.80
2022-10-23T05:15:58.798Z,94159.81
2022-10-23T05:17:12.691Z,94155.77
2022-10-23T05:18:18.633Z,94157.17
2022-10-23T05:19:26.692Z,94153.34
2022-10-23T05:20:34.252Z,94153.56
2022-10-23T05:21:40.021Z,94147.54
2022-10-23T05:22:46.286Z,94151.62
2022-10-23T05:23:51.090Z,94150.04
2022-10-23T05:24:54.932Z,94147.65
2022-10-23T05:26:00.863Z,94144.86
2022-10-23T05:27:04.175Z,94142.27
2022-10-23T05:28:08.314Z,94136.45
2022-10-23T05:29:11.936Z,94137.06
2022-10-23T05:30:17.385Z,94132.64
2022-10-23T05:31:23.647Z,94134.27
2022-10-23T05:32:31.372Z,94119.15
2022-10-23T05:33:36.398Z,94133.36
2022-10-23T05:34:40.648Z,94129.32
2022-10-23T05:35:45.521Z,94130.66
2022-10-23T05:36:51.445Z,94136.08
2022-10-23T05:37:56.062Z,94137.67
2022-10-23T05:39:02.396Z,94141.29
2022-10-23T05:40:06.331Z,94138.52
2022-10-23T05:41:10.633Z,94136.61
2022-10-23T05:42:13.948Z,94138.09
2022-10-23T05:43:18.791Z,94138.15
2022-10-23T05:44:28.673Z,94136.01
2022-10-23T05:46:05.348Z,94142.21
2022-10-23T05:47:27.320Z,94141.36
2022-10-23T05:48:56.428Z,94140.84
2022-10-23T05:50:18.534Z,94138.21
2022-10-23T05:51:23.355Z,94138.98
2022-10-23T05:52:34.886Z,94136.58
2022-10-23T05:53:56.809Z,94139.07
2022-10-23T05:55:17.834Z,94139.11
2022-10-23T05:56:23.705Z,94142.91
2022-10-23T05:57:37.427Z,94142.41
2022-10-23T05:58:44.177Z,94136.39
2022-10-23T06:00:02.762Z,94135.92
2022-10-23T06:01:18.690Z,94135.39
2022-10-23T06:02:31.400Z,94136.04
2022-10-23T06:03:39.894Z,94136.36
2022-10-23T06:04:45.781Z,94138.52
2022-10-23T06:06:08.506Z,94138.84
2022-10-23T06:07:24.592Z,94139.88
2022-10-23T06:08:28.302Z,94141.02
2022-10-23T06:09:31.603Z,94140.71
2022-10-23T06:10:36.924Z,94140.02
2022-10-23T06:11:42.377Z,94137.63
2022-10-23T06:12:49.643Z,94139.64
2022-10-23T06:13:53.789Z,94139.77
2022-10-23T06:14:59.199Z,94139.06
2022-10-23T06:16:20.624Z,94137.73
2022-10-23T06:17:24.366Z,94137.23
2022-10-23T06:18:27.626Z,94137.56
2022-10-23T06:19:41.677Z,94136.71
2022-10-23T06:20:44.901Z,94138.81
2022-10-23T06:21:53.651Z,94140.79
2022-10-23T06:23:00.131Z,94140.39
2022-10-23T06:24:21.412Z,94140.76
2022-10-23T06:25:28.912Z,94138.38
2022-10-23T06:26:32.563Z,94135.91
2022-10-23T06:27:47.963Z,94136.13
2022-10-23T06:28:52.056Z,94134.40
2022-10-23T06:29:57.641Z,94137.91
2022-10-23T06:31:05.656Z,94138.00
2022-10-23T06:32:08.951Z,94134.61
2022-10-23T06:33:13.193Z,94136.40
2022-10-23T06:34:16.547Z,94133.76
2022-10-23T06:35:21.646Z,94133.83
2022-10-23T06:36:25.938Z,94136.98
2022-10-23T06:37:34.766Z,94136.09
2022-10-23T06:40:27.395Z,94132.75
2022-10-23T06:41:36.691Z,94130.42
2022-10-23T06:42:40.306Z,94135.69
2022-10-23T06:44:02.433Z,94134.62
2022-10-23T06:45:23.139Z,94134.40
2022-10-23T06:47:00.563Z,94132.39
2022-10-23T06:48:23.758Z,94135.77
2022-10-23T06:49:40.227Z,94134.02
2022-10-23T06:50:43.598Z,94136.13
2022-10-23T06:51:49.023Z,94137.02
2022-10-23T06:52:54.021Z,94140.79
2022-10-23T06:53:58.503Z,94139.18
2022-10-23T06:55:20.560Z,94139.53
2022-10-23T06:56:25.456Z,94142.27
2022-10-23T06:57:28.951Z,94144.75
2022-10-23T06:58:33.768Z,94144.85
2022-10-23T06:59:40.264Z,94143.73
2022-10-23T07:00:44.759Z,94143.48
2022-10-23T07:01:48.313Z,94144.83
2022-10-23T07:02:52.936Z,94146.84
2022-10-23T07:03:56.282Z,94145.25
2022-10-23T07:05:02.207Z,94148.73
2022-10-23T07:06:10.170Z,94151.35
2022-10-23T07:07:14.083Z,94147.73
2022-10-23T07:08:22.037Z,94151.32
2022-10-23T07:09:26.758Z,94154.29
2022-10-23T07:10:29.906Z,94151.86
2022-10-23T07:11:35.291Z,94152.59
2022-10-23T07:12:38.582Z,94151.41
2022-10-23T07:14:01.627Z,94152.23
2022-10-23T07:15:05.691Z,94151.19
2022-10-23T07:16:21.098Z,94153.17
2022-10-23T07:17:24.875Z,94155.94
2022-10-23T07:18:29.218Z,94153.98
2022-10-23T07:19:51.269Z,94152.61
2022-10-23T07:20:58.749Z,94146.29
2022-10-23T07:22:02.087Z,94149.57
2022-10-23T07:23:25.987Z,94144.94
2022-10-23T07:24:31.081Z,94146.84
2022-10-23T07:25:35.009Z,94147.36
2022-10-23T07:26:38.246Z,94144.36
2022-10-23T07:27:41.881Z,94144.87
2022-10-23T07:28:48.656Z,94147.28
2022-10-23T07:29:54.456Z,94151.42
2022-10-23T07:30:59.654Z,94153.86
2022-10-23T07:32:09.447Z,94151.84
2022-10-23T07:33:31.650Z,94157.23
2022-10-23T07:34:43.509Z,94153.77
2022-10-23T07:36:14.688Z,94154.29
2022-10-23T07:37:18.022Z,94152.17
2022-10-23T07:38:21.517Z,94151.39
2022-10-23T07:39:29.491Z,94148.32
2022-10-23T07:40:33.232Z,94139.04
2022-10-23T07:41:36.462Z,94150.66
2022-10-23T07:42:39.668Z,94148.75
2022-10-23T07:43:44.074Z,94147.90
2022-10-23T07:44:47.218Z,94148.39
2022-10-23T07:45:50.786Z,94148.65
2022-10-23T07:47:10.361Z,94146.80
2022-10-23T07:48:15.559Z,94144.80
2022-10-23T07:49:33.744Z,94145.36
2022-10-23T07:50:38.832Z,94138.02
2022-10-23T07:51:42.389Z,94143.22
2022-10-23T07:52:45.849Z,94142.79
2022-10-23T07:53:52.736Z,94140.45
2022-10-23T07:55:08.507Z,94143.64
2022-10-23T07:56:30.055Z,94141.41
2022-10-23T07:57:50.357Z,94138.77
2022-10-23T07:59:12.955Z,94139.27
2022-10-23T08:00:16.485Z,94138.45
2022-10-23T08:01:34.883Z,94132.02
2022-10-23T08:02:41.572Z,94133.66
2022-10-23T08:03:45.809Z,94133.02
2022-10-23T08:04:50.547Z,94135.05
2022-10-23T08:06:08.162Z,94130.31
2022-10-23T08:07:11.379Z,94126.11
2022-10-23T08:08:17.573Z,94127.30
2022-10-23T08:09:22.946Z,94129.84
2022-10-23T08:10:26.316Z,94133.94
2022-10-23T08:11:35.385Z,94136.14
2022-10-23T08:12:39.177Z,94133.75
2022-10-23T08:13:43.956Z,94133.26
2022-10-23T08:14:47.437Z,94131.10
2022-10-23T08:15:52.752Z,94128.80
2022-10-23T08:17:15.873Z,94131.48
2022-10-23T08:18:38.019Z,94131.25
2022-10-23T08:19:46.589Z,94129.73
2022-10-23T08:20:53.442Z,94129.39
2022-10-23T08:21:57.489Z,94124.61
2022-10-23T08:23:00.888Z,94124.41
2022-10-23T08:24:05.736Z,94121.28
2022-10-23T08:25:09.423Z,94117.66
2022-10-23T08:26:12.958Z,94112.79
2022-10-23T08:27:17.376Z,94112.22
2022-10-23T08:28:24.625Z,94112.06
2022-10-23T08:29:31.993Z,94108.61
2022-10-23T08:30:36.835Z,94107.52
2022-10-23T08:31:40.187Z,94108.77
2022-10-23T08:33:07.345Z,94105.52
2022-10-23T08:34:11.447Z,94105.02
2022-10-23T08:35:14.978Z,94101.52
2022-10-23T08:36:27.554Z,94101.71
2022-10-23T08:37:31.044Z,94106.64
2022-10-23T08:38:35.831Z,94102.94
2022-10-23T08:39:40.823Z,94100.66
2022-10-23T08:40:51.475Z,94097.38
2022-10-23T08:42:24.919Z,94096.97
2022-10-23T08:43:47.183Z,94091.02
2022-10-23T08:45:33.279Z,94090.41
2022-10-23T08:46:46.307Z,94090.55
2022-10-23T08:48:25.836Z,94082.92
2022-10-23T08:50:05.329Z,94082.59
2022-10-23T08:51:16.638Z,94082.02
2022-10-23T08:52:25.544Z,94080.84
2022-10-23T08:53:53.126Z,94082.10
2022-10-23T08:55:15.283Z,94079.73
2022-10-23T08:56:23.452Z,94077.92
2022-10-23T08:57:35.545Z,94081.56
2022-10-23T08:58:57.344Z,94083.30
2022-10-23T09:00:08.151Z,94082.52
2022-10-23T09:01:24.866Z,94081.52
2022-10-23T09:02:38.769Z,94079.89
2022-10-23T09:03:43.698Z,94078.23
2022-10-23T09:04:50.223Z,94081.59
2022-10-23T09:06:38.117Z,94088.60
2022-10-23T09:08:17.963Z,94089.11
2022-10-23T09:09:26.792Z,94089.75
2022-10-23T09:11:03.519Z,94085.27
2022-10-23T09:12:17.870Z,94079.98
2022-10-23T09:13:43.025Z,94078.45
2022-10-23T09:15:14.981Z,94076.52
2022-10-23T09:16:43.758Z,94076.71
2022-10-23T09:17:48.154Z,94075.35
2022-10-23T09:18:52.525Z,94081.65
2022-10-23T09:20:13.938Z,94078.84
2022-10-23T09:21:17.291Z,94084.31
2022-10-23T09:22:20.941Z,94085.92
2022-10-23T09:23:27.346Z,94084.38
2022-10-23T09:24:31.934Z,94086.55
2022-10-23T09:25:39.161Z,94085.52
2022-10-23T09:26:43.076Z,94088.26
2022-10-23T09:27:54.767Z,94088.91
2022-10-23T09:29:15.031Z,94089.53
2022-10-23T09:30:38.152Z,94087.91
2022-10-23T09:31:52.597Z,94087.08
2022-10-23T09:32:56.426Z,94083.52
2022-10-23T09:34:01.922Z,94073.13
2022-10-23T09:35:06.388Z,94078.31
2022-10-23T09:36:14.010Z,94077.90
2022-10-23T09:37:28.082Z,94077.06
2022-10-23T09:38:35.957Z,94073.58
2022-10-23T09:39:39.303Z,94074.63
2022-10-23T09:40:44.319Z,94073.30
2022-10-23T09:41:47.653Z,94076.44
2022-10-23T09:42:54.189Z,94075.36
2022-10-23T09:44:17.978Z,94073.38
2022-10-23T09:45:27.488Z,94075.91
2022-10-23T09:46:44.760Z,94075.17
2022-10-23T09:47:48.031Z,94076.36
2022-10-23T09:48:59.906Z,94071.52
2022-10-23T09:50:20.551Z,94075.48
2022-10-23T09:51:24.288Z,94077.66
2022-10-23T09:52:37.151Z,94073.41
2022-10-23T09:54:00.860Z,94071.19
2022-10-23T09:55:20.755Z,94071.42
2022-10-23T09:56:24.937Z,94070.89
2022-10-23T09:57:40.706Z,94071.11
2022-10-23T09:58:58.022Z,94069.86
2022-10-23T10:00:15.683Z,94070.42
2022-10-23T10:01:28.191Z,94070.71
2022-10-23T10:02:37.931Z,94074.80
2022-10-23T10:03:59.854Z,94070.11
2022-10-23T10:05:23.832Z,94068.16
2022-10-23T10:06:32.792Z,94065.53
2022-10-23T10:07:36.900Z,94069.62
2022-10-23T10:08:47.070Z,94068.02
2022-10-23T10:09:52.285Z,94064.23
2022-10-23T10:11:01.890Z,94064.58
2022-10-23T10:12:20.021Z,94067.97
2022-10-23T10:13:38.642Z,94064.26
2022-10-23T10:14:53.429Z,94067.95
2022-10-23T10:16:04.021Z,94064.27
2022-10-23T10:17:20.011Z,94064.42
2022-10-23T10:18:33.212Z,94064.34
2022-10-23T10:19:54.953Z,94065.95
2022-10-23T10:21:12.108Z,94067.31
2022-10-23T10:22:24.604Z,94070.26
2022-10-23T10:23:42.007Z,94071.98
2022-10-23T10:24:55.885Z,94075.39
2022-10-23T10:26:17.303Z,94076.34
2022-10-23T10:27:26.710Z,94074.94
2022-10-23T10:28:49.291Z,94075.36
2022-10-23T10:29:58.474Z,94076.02
2022-10-23T10:31:13.754Z,94076.66
2022-10-23T10:32:27.637Z,94075.80
2022-10-23T10:34:14.166Z,94069.99
2022-10-23T10:35:56.335Z,94064.55
2022-10-23T10:37:13.821Z,94064.86
2022-10-23T10:38:44.428Z,94063.73
2022-10-23T10:40:09.374Z,94062.13
2022-10-23T10:41:37.887Z,94061.76
2022-10-23T10:43:08.496Z,94059.10
2022-10-23T10:44:31.566Z,94056.54
2022-10-23T10:45:39.859Z,94054.67
2022-10-23T10:46:48.996Z,94054.13
2022-10-23T10:48:01.546Z,94052.60
2022-10-23T10:49:27.188Z,94052.48
2022-10-23T10:51:30.197Z,94048.36
2022-10-23T10:52:36.918Z,94045.95
2022-10-23T10:53:40.476Z,94041.56
2022-10-23T10:54:59.128Z,94043.28
2022-10-23T10:56:04.154Z,94042.15
2022-10-23T10:57:28.822Z,94040.84
2022-10-23T10:58:44.108Z,94037.19
2022-10-23T10:59:51.458Z,94037.75
2022-10-23T11:01:02.163Z,94038.06
2022-10-23T11:02:27.088Z,94036.58
2022-10-23T11:03:39.171Z,94030.66
2022-10-23T11:05:12.713Z,94027.64
2022-10-23T11:06:20.954Z,94026.89
2022-10-23T11:07:29.927Z,94027.35
2022-10-23T11:08:49.899Z,94021.18
2022-10-23T11:10:05.042Z,94021.30
2022-10-23T11:11:31.192Z,94023.04
2022-10-23T11:12:34.365Z,94018.08
2022-10-23T11:13:42.685Z,94018.29
2022-10-23T11:14:46.543Z,94014.11
2022-10-23T11:17:19.223Z,94017.11
2022-10-23T11:18:28.779Z,94017.77
2022-10-23T11:19:57.866Z,94011.67
2022-10-23T11:21:20.007Z,94007.50
2022-10-23T11:22:49.681Z,94005.68
2022-10-23T11:24:11.675Z,94001.73
2022-10-23T11:25:50.531Z,93999.93
2022-10-23T11:27:08.636Z,94000.23
2022-10-23T11:28:18.575Z,94000.89
2022-10-23T11:29:46.312Z,93998.51
2022-10-23T11:31:11.706Z,94001.31
2022-10-23T11:33:00.124Z,93998.06
2022-10-23T11:34:32.121Z,93995.71
2022-10-23T11:35:57.796Z,93990.11
2022-10-23T11:37:01.862Z,93990.45
2022-10-23T11:38:18.174Z,93986.26
2022-10-23T11:39:26.152Z,93980.25
2022-10-23T11:40:32.478Z,93979.20
2022-10-23T11:41:35.764Z,93975.05
2022-10-23T11:42:42.367Z,93976.94
2022-10-23T11:43:52.250Z,93977.02
2022-10-23T11:44:55.355Z,93974.85
2022-10-23T11:46:01.688Z,93976.06
2022-10-23T11:47:26.172Z,93975.80
2022-10-23T11:48:39.321Z,93969.34
2022-10-23T11:49:42.585Z,93968.25
2022-10-23T11:50:46.258Z,93968.79
2022-10-23T11:52:00.497Z,93967.05
2022-10-23T11:53:23.784Z,93967.83
2022-10-23T11:54:27.622Z,93956.38
2022-10-23T11:55:32.431Z,93954.17
2022-10-23T11:56:39.000Z,93951.00
2022-10-23T11:57:42.396Z,93946.63
2022-10-23T11:58:51.060Z,93939.89
2022-10-23T11:59:56.239Z,93938.17
2022-10-23T12:01:04.769Z,93938.58
2022-10-23T12:02:43.257Z,93940.49
2022-10-23T12:04:11.673Z,93933.96
2022-10-23T12:05:41.726Z,93935.85
2022-10-23T12:06:50.315Z,93936.02
2022-10-23T12:08:03.857Z,93933.06
2022-10-23T12:09:22.250Z,93931.71
2022-10-23T12:10:35.223Z,93929.50
2022-10-23T12:11:44.775Z,93930.45
2022-10-23T12:13:29.025Z,93930.35
2022-10-23T12:14:37.689Z,93930.13
2022-10-23T12:15:56.065Z,93926.16
2022-10-23T12:17:03.191Z,93928.00
2022-10-23T12:18:18.234Z,93918.71
2022-10-23T12:19:24.252Z,93922.42
2022-10-23T12:20:36.918Z,93917.26
2022-10-23T12:21:41.071Z,93914.95
2022-10-23T12:22:47.196Z,93917.27
2022-10-23T12:24:10.352Z,93917.70
2022-10-23T12:25:23.986Z,93916.69
2022-10-23T12:26:56.748Z,93917.27
2022-10-23T12:28:38.532Z,93907.96
2022-10-23T12:30:09.836Z,93903.91
2022-10-23T12:31:31.206Z,93903.43
2022-10-23T12:32:58.336Z,93899.04
2022-10-23T12:34:26.371Z,93897.83
2022-10-23T12:35:57.349Z,93899.16
2022-10-23T12:37:25.313Z,93902.27
2022-10-23T12:38:33.858Z,93895.60
2022-10-23T12:39:40.524Z,93902.02
2022-10-23T12:40:52.482Z,93900.30
2022-10-23T12:41:56.722Z,93900.23
2022-10-23T12:43:01.501Z,93901.30
2022-10-23T12:44:11.029Z,93899.50
2022-10-23T12:45:21.711Z,93899.38
2022-10-23T12:46:30.993Z,93903.67
2022-10-23T12:47:34.464Z,93898.88
2022-10-23T12:48:58.971Z,93898.77
2022-10-23T12:50:02.091Z,93899.67
2022-10-23T12:51:05.489Z,93896.72
2022-10-23T12:52:17.813Z,93895.33
2022-10-23T12:53:23.221Z,93893.02
2022-10-23T12:54:27.697Z,93896.70
2022-10-23T12:55:46.917Z,93896.37
2022-10-23T12:56:50.477Z,93895.92
2022-10-23T12:57:54.921Z,93892.38
2022-10-23T12:59:01.556Z,93889.48
2022-10-23T13:00:16.293Z,93890.79
2022-10-23T13:01:40.436Z,93892.67
2022-10-23T13:03:01.187Z,93889.07
2022-10-23T13:04:11.023Z,93892.80
2022-10-23T13:05:19.581Z,93893.98
2022-10-23T13:06:23.137Z,93894.32
2022-10-23T13:07:29.851Z,93898.85
2022-10-23T13:08:42.517Z,93898.17
2022-10-23T13:10:19.876Z,93895.66
2022-10-23T13:11:33.491Z,93891.03
2022-10-23T13:12:40.540Z,93886.36
2022-10-23T13:13:43.979Z,93885.40
2022-10-23T13:15:16.460Z,93882.13
2022-10-23T13:16:25.853Z,93877.34
2022-10-23T13:17:41.559Z,93873.54
2022-10-23T13:18:45.544Z,93866.02
2022-10-23T13:19:48.726Z,93873.52
2022-10-23T13:20:51.954Z,93867.73
2022-10-23T13:21:55.357Z,93866.80
2022-10-23T13:23:27.068Z,93870.83
2022-10-23T13:24:31.546Z,93865.34
2022-10-23T13:25:37.100Z,93864.98
2022-10-23T13:26:47.792Z,93865.33
2022-10-23T13:27:52.012Z,93860.39
2022-10-23T13:28:55.565Z,93863.62
2022-10-23T13:29:58.699Z,93862.70
2022-10-23T13:31:03.451Z,93862.64
2022-10-23T13:32:22.303Z,93865.34
2022-10-23T13:33:34.481Z,93864.02
2022-10-23T13:34:37.681Z,93866.09
2022-10-23T13:35:41.286Z,93864.10
2022-10-23T13:36:54.201Z,93865.34
2022-10-23T13:38:08.175Z,93861.21
2022-10-23T13:39:11.455Z,93863.55
2022-10-23T13:40:26.679Z,93863.15
2022-10-23T13:41:40.463Z,93864.52
2022-10-23T13:42:43.756Z,93867.31
2022-10-23T13:43:48.676Z,93865.11
2022-10-23T13:44:52.232Z,93865.04
2022-10-23T13:45:55.485Z,93861.73
2022-10-23T13:47:01.006Z,93863.69
2022-10-23T13:48:13.876Z,93863.27
2022-10-23T13:49:17.268Z,93859.98
2022-10-23T13:50:20.951Z,93853.34
2022-10-23T13:51:37.638Z,93849.28
2022-10-23T13:52:44.137Z,93843.70
2022-10-23T13:53:48.001Z,93847.31
2022-10-23T13:54:54.308Z,93844.82
2022-10-23T13:55:58.765Z,93853.27
2022-10-23T13:57:02.139Z,93854.15
2022-10-23T13:58:05.537Z,93854.27